PGT2287 LTBS-LTFJ
Flight info
| Callsign | PGT2287 |
|---|---|
| Flight time | N/A |
| Altitude | 38000 |
| Route | RIVBU DCT BAGLU DCT ATGIT UT30 SIVKU UL610 ETAMP |
| Aircraft | A20N/M-SDE2E3FGHIJ1RWXY/LB1 |
Departure
| Time | 2026-04-22 16:14 |
|---|---|
| Airport | Dalaman International Airport (LTBS) |
Arrival
| Time | N/A |
|---|---|
| Airport | Istanbul Sabiha Gökçen International Airport (LTFJ) |
| Time | Latitude | Longitude | Altitude | Speed | Heading |
|---|---|---|---|---|---|
| 2026-04-22 16:04 | 36.71709 | 28.78862 | 25 ft | 0 kts | 285° |
| 2026-04-22 16:05 | 36.71707 | 28.78874 | 25 ft | 2 kts | 285° |
| 2026-04-22 16:06 | 36.71703 | 28.78892 | 24 ft | 2 kts | 285° |
| 2026-04-22 16:06 | 36.71699 | 28.78910 | 24 ft | 2 kts | 290° |
| 2026-04-22 16:06 | 36.71691 | 28.78926 | 24 ft | 2 kts | 317° |
| 2026-04-22 16:06 | 36.71678 | 28.78936 | 23 ft | 2 kts | 340° |
| 2026-04-22 16:07 | 36.71663 | 28.78940 | 23 ft | 2 kts | 2° |
| 2026-04-22 16:07 | 36.71655 | 28.78939 | 23 ft | 1 kts | 15° |
| 2026-04-22 16:07 | 36.71649 | 28.78937 | 23 ft | 0 kts | 15° |
| 2026-04-22 16:09 | 36.71650 | 28.78937 | 23 ft | 0 kts | 15° |
| 2026-04-22 16:09 | 36.71679 | 28.78947 | 23 ft | 5 kts | 15° |
| 2026-04-22 16:10 | 36.71739 | 28.78968 | 24 ft | 13 kts | 15° |
| 2026-04-22 16:10 | 36.71827 | 28.78997 | 25 ft | 12 kts | 15° |
| 2026-04-22 16:10 | 36.71879 | 28.79015 | 26 ft | 9 kts | 17° |
| 2026-04-22 16:10 | 36.71892 | 28.79106 | 27 ft | 10 kts | 105° |
| 2026-04-22 16:11 | 36.71872 | 28.79195 | 26 ft | 9 kts | 99° |
| 2026-04-22 16:11 | 36.71921 | 28.79241 | 26 ft | 10 kts | 15° |
| 2026-04-22 16:11 | 36.72020 | 28.79274 | 27 ft | 19 kts | 15° |
| 2026-04-22 16:11 | 36.72150 | 28.79318 | 28 ft | 18 kts | 15° |
| 2026-04-22 16:12 | 36.72275 | 28.79361 | 28 ft | 18 kts | 15° |
| 2026-04-22 16:12 | 36.72403 | 28.79404 | 27 ft | 19 kts | 9° |
| 2026-04-22 16:12 | 36.72524 | 28.79446 | 26 ft | 16 kts | 16° |
| 2026-04-22 16:12 | 36.72616 | 28.79479 | 26 ft | 10 kts | 28° |
| 2026-04-22 16:13 | 36.72643 | 28.79548 | 25 ft | 8 kts | 97° |
| 2026-04-22 16:13 | 36.72620 | 28.79618 | 25 ft | 9 kts | 129° |
| 2026-04-22 16:13 | 36.72562 | 28.79663 | 25 ft | 10 kts | 172° |
| 2026-04-22 16:13 | 36.72519 | 28.79659 | 25 ft | 0 kts | 195° |
| 2026-04-22 16:14 | 36.72370 | 28.79608 | 23 ft | 62 kts | 195° |
| 2026-04-22 16:14 | 36.71684 | 28.79375 | 22 ft | 137 kts | 194° |
| 2026-04-22 16:14 | 36.70620 | 28.79014 | 340 ft | 168 kts | 197° |
| 2026-04-22 16:14 | 36.69506 | 28.78597 | 1165 ft | 169 kts | 197° |
| 2026-04-22 16:15 | 36.68397 | 28.78213 | 2031 ft | 171 kts | 197° |
| 2026-04-22 16:15 | 36.67213 | 28.77796 | 2597 ft | 184 kts | 196° |
| 2026-04-22 16:15 | 36.65923 | 28.77367 | 3087 ft | 201 kts | 195° |
| 2026-04-22 16:15 | 36.64502 | 28.76895 | 3512 ft | 223 kts | 196° |
| 2026-04-22 16:16 | 36.62945 | 28.76374 | 4012 ft | 243 kts | 196° |
| 2026-04-22 16:16 | 36.61243 | 28.75799 | 4590 ft | 261 kts | 196° |
| 2026-04-22 16:16 | 36.59470 | 28.75200 | 5392 ft | 269 kts | 196° |
| 2026-04-22 16:16 | 36.57614 | 28.74994 | 6276 ft | 275 kts | 172° |
| 2026-04-22 16:17 | 36.55862 | 28.75910 | 7143 ft | 283 kts | 144° |
| 2026-04-22 16:17 | 36.54601 | 28.77790 | 7959 ft | 291 kts | 115° |
| 2026-04-22 16:17 | 36.53993 | 28.80196 | 8768 ft | 297 kts | 105° |
| 2026-04-22 16:17 | 36.53490 | 28.82707 | 9552 ft | 302 kts | 104° |
| 2026-04-22 16:18 | 36.52971 | 28.85228 | 10317 ft | 308 kts | 105° |
| 2026-04-22 16:18 | 36.52408 | 28.87855 | 10830 ft | 322 kts | 105° |
| 2026-04-22 16:18 | 36.51881 | 28.90622 | 11299 ft | 337 kts | 95° |
| 2026-04-22 16:18 | 36.52151 | 28.93503 | 11968 ft | 341 kts | 67° |
| 2026-04-22 16:19 | 36.53385 | 28.95960 | 12720 ft | 338 kts | 42° |
| 2026-04-22 16:19 | 36.55325 | 28.97563 | 13367 ft | 336 kts | 17° |
| 2026-04-22 16:19 | 36.57557 | 28.98341 | 14087 ft | 337 kts | 10° |
| 2026-04-22 16:19 | 36.59848 | 28.99059 | 14817 ft | 342 kts | 10° |
| 2026-04-22 16:20 | 36.62170 | 28.99810 | 15527 ft | 345 kts | 11° |
| 2026-04-22 16:20 | 36.64477 | 29.00575 | 16232 ft | 348 kts | 11° |
| 2026-04-22 16:20 | 36.66831 | 29.01369 | 16918 ft | 352 kts | 11° |
| 2026-04-22 16:20 | 36.69202 | 29.02177 | 17595 ft | 355 kts | 11° |
| 2026-04-22 16:21 | 36.71583 | 29.02993 | 18261 ft | 359 kts | 11° |
| 2026-04-22 16:21 | 36.74015 | 29.03829 | 18917 ft | 362 kts | 11° |
| 2026-04-22 16:21 | 36.76463 | 29.04671 | 19557 ft | 366 kts | 11° |
| 2026-04-22 16:21 | 36.78891 | 29.05507 | 20198 ft | 369 kts | 11° |
| 2026-04-22 16:22 | 36.83892 | 29.07233 | 21459 ft | 374 kts | 10° |
| 2026-04-22 16:22 | 36.86395 | 29.08097 | 22062 ft | 377 kts | 10° |
| 2026-04-22 16:22 | 36.88955 | 29.08981 | 22639 ft | 380 kts | 10° |
| 2026-04-22 16:23 | 36.94056 | 29.10758 | 23766 ft | 387 kts | 11° |
| 2026-04-22 16:23 | 36.96658 | 29.11841 | 24312 ft | 393 kts | 15° |
| 2026-04-22 16:23 | 36.99183 | 29.13112 | 24841 ft | 397 kts | 17° |
| 2026-04-22 16:24 | 37.01728 | 29.14478 | 25357 ft | 400 kts | 18° |
| 2026-04-22 16:24 | 37.06888 | 29.17272 | 26337 ft | 405 kts | 18° |
| 2026-04-22 16:24 | 37.09481 | 29.18620 | 26790 ft | 407 kts | 16° |
| 2026-04-22 16:25 | 37.12105 | 29.19929 | 27216 ft | 410 kts | 16° |
| 2026-04-22 16:25 | 37.17449 | 29.22587 | 28074 ft | 415 kts | 16° |
| 2026-04-22 16:25 | 37.20147 | 29.23935 | 28482 ft | 418 kts | 15° |
| 2026-04-22 16:26 | 37.22868 | 29.25299 | 28872 ft | 421 kts | 15° |
| 2026-04-22 16:26 | 37.25577 | 29.26658 | 29277 ft | 423 kts | 16° |
| 2026-04-22 16:26 | 37.28309 | 29.28033 | 29665 ft | 425 kts | 15° |
| 2026-04-22 16:26 | 37.31073 | 29.29425 | 30017 ft | 428 kts | 15° |
| 2026-04-22 16:27 | 37.33846 | 29.30823 | 30372 ft | 431 kts | 15° |
| 2026-04-22 16:27 | 37.36631 | 29.32229 | 30698 ft | 434 kts | 15° |
| 2026-04-22 16:27 | 37.39428 | 29.33641 | 31039 ft | 436 kts | 15° |
| 2026-04-22 16:27 | 37.42254 | 29.35071 | 31516 ft | 434 kts | 15° |
| 2026-04-22 16:28 | 37.45027 | 29.36476 | 32013 ft | 432 kts | 15° |
| 2026-04-22 16:28 | 37.47807 | 29.37884 | 32441 ft | 431 kts | 14° |
| 2026-04-22 16:28 | 37.50597 | 29.39299 | 32828 ft | 431 kts | 14° |
| 2026-04-22 16:28 | 37.53390 | 29.40714 | 33207 ft | 430 kts | 14° |
| 2026-04-22 16:29 | 37.56159 | 29.42118 | 33609 ft | 429 kts | 14° |
| 2026-04-22 16:29 | 37.58920 | 29.43520 | 33992 ft | 428 kts | 14° |
| 2026-04-22 16:29 | 37.61688 | 29.44929 | 34392 ft | 426 kts | 14° |
| 2026-04-22 16:29 | 37.64419 | 29.46317 | 34734 ft | 425 kts | 14° |
| 2026-04-22 16:30 | 37.66260 | 29.47254 | 34919 ft | 425 kts | 14° |
| 2026-04-22 16:30 | 37.69930 | 29.49120 | 35284 ft | 424 kts | 14° |
| 2026-04-22 16:30 | 37.72659 | 29.50511 | 35537 ft | 423 kts | 14° |
| 2026-04-22 16:30 | 37.75391 | 29.51903 | 35763 ft | 423 kts | 14° |
| 2026-04-22 16:31 | 37.78109 | 29.53289 | 35968 ft | 424 kts | 14° |
| 2026-04-22 16:31 | 37.80848 | 29.54688 | 36153 ft | 425 kts | 14° |
| 2026-04-22 16:31 | 37.83614 | 29.56102 | 36354 ft | 425 kts | 14° |
| 2026-04-22 16:31 | 37.86358 | 29.57507 | 36544 ft | 425 kts | 14° |
| 2026-04-22 16:32 | 37.89067 | 29.58895 | 36737 ft | 426 kts | 14° |
| 2026-04-22 16:32 | 37.91840 | 29.60317 | 36930 ft | 427 kts | 14° |
| 2026-04-22 16:32 | 37.94592 | 29.61729 | 37107 ft | 428 kts | 14° |
| 2026-04-22 16:32 | 37.97329 | 29.63134 | 37284 ft | 430 kts | 14° |
| 2026-04-22 16:33 | 38.00116 | 29.64565 | 37480 ft | 431 kts | 14° |
| 2026-04-22 16:33 | 38.02919 | 29.66005 | 37645 ft | 432 kts | 14° |
| 2026-04-22 16:33 | 38.05685 | 29.67429 | 37750 ft | 433 kts | 14° |
| 2026-04-22 16:33 | 38.08472 | 29.68865 | 37833 ft | 435 kts | 14° |
| 2026-04-22 16:34 | 38.11286 | 29.70315 | 37940 ft | 436 kts | 14° |
| 2026-04-22 16:34 | 38.14083 | 29.71758 | 37942 ft | 438 kts | 14° |
| 2026-04-22 16:34 | 38.19770 | 29.74439 | 37945 ft | 433 kts | 9° |
| 2026-04-22 16:35 | 38.25567 | 29.76264 | 37940 ft | 426 kts | 3° |
| 2026-04-22 16:35 | 38.31390 | 29.77682 | 37943 ft | 426 kts | 3° |
| 2026-04-22 16:36 | 38.37211 | 29.79094 | 37950 ft | 426 kts | 3° |
| 2026-04-22 16:36 | 38.43050 | 29.80519 | 37932 ft | 427 kts | 3° |
| 2026-04-22 16:37 | 38.48911 | 29.81959 | 37945 ft | 429 kts | 3° |
| 2026-04-22 16:37 | 38.54768 | 29.83402 | 37943 ft | 429 kts | 3° |
| 2026-04-22 16:38 | 38.60627 | 29.84847 | 37944 ft | 429 kts | 3° |
| 2026-04-22 16:38 | 38.66500 | 29.86300 | 37937 ft | 428 kts | 3° |
| 2026-04-22 16:39 | 38.72322 | 29.87741 | 37931 ft | 430 kts | 3° |
| 2026-04-22 16:39 | 38.78229 | 29.89205 | 37936 ft | 430 kts | 3° |
| 2026-04-22 16:40 | 38.84074 | 29.90656 | 37932 ft | 431 kts | 3° |
| 2026-04-22 16:40 | 38.89979 | 29.92124 | 37591 ft | 430 kts | 3° |
| 2026-04-22 16:41 | 38.92903 | 29.92855 | 37175 ft | 427 kts | 3° |
| 2026-04-22 16:41 | 38.95772 | 29.93572 | 36683 ft | 426 kts | 3° |
| 2026-04-22 16:41 | 38.98699 | 29.94300 | 36226 ft | 427 kts | 2° |
| 2026-04-22 16:41 | 39.01604 | 29.95023 | 35668 ft | 430 kts | 2° |
| 2026-04-22 16:42 | 39.04560 | 29.95759 | 35062 ft | 432 kts | 2° |
| 2026-04-22 16:42 | 39.07518 | 29.96342 | 34339 ft | 429 kts | 357° |
| 2026-04-22 16:42 | 39.10488 | 29.96517 | 33644 ft | 423 kts | 351° |
| 2026-04-22 16:42 | 39.13379 | 29.96298 | 32981 ft | 417 kts | 346° |
| 2026-04-22 16:43 | 39.16238 | 29.95694 | 32282 ft | 413 kts | 340° |
| 2026-04-22 16:43 | 39.18995 | 29.94722 | 31597 ft | 408 kts | 334° |
| 2026-04-22 16:43 | 39.21611 | 29.93432 | 30925 ft | 404 kts | 330° |
| 2026-04-22 16:43 | 39.24191 | 29.91991 | 30228 ft | 404 kts | 329° |
| 2026-04-22 16:44 | 39.26774 | 29.90515 | 29740 ft | 399 kts | 329° |
| 2026-04-22 16:44 | 39.29279 | 29.89084 | 29292 ft | 394 kts | 330° |
| 2026-04-22 16:44 | 39.31775 | 29.87662 | 28835 ft | 390 kts | 329° |
| 2026-04-22 16:44 | 39.34216 | 29.86272 | 28389 ft | 385 kts | 329° |
| 2026-04-22 16:45 | 39.36676 | 29.84873 | 27931 ft | 381 kts | 329° |
| 2026-04-22 16:45 | 39.39084 | 29.83519 | 27481 ft | 378 kts | 330° |
| 2026-04-22 16:45 | 39.41487 | 29.82173 | 27031 ft | 374 kts | 330° |
| 2026-04-22 16:45 | 39.43865 | 29.80842 | 26583 ft | 371 kts | 329° |
| 2026-04-22 16:46 | 39.46225 | 29.79515 | 26132 ft | 368 kts | 330° |
| 2026-04-22 16:46 | 39.48570 | 29.78195 | 25685 ft | 366 kts | 330° |
| 2026-04-22 16:46 | 39.50863 | 29.76904 | 25246 ft | 363 kts | 330° |
| 2026-04-22 16:46 | 39.53170 | 29.75604 | 24801 ft | 360 kts | 329° |
| 2026-04-22 16:47 | 39.55461 | 29.74312 | 24363 ft | 357 kts | 329° |
| 2026-04-22 16:47 | 39.57738 | 29.73029 | 23930 ft | 355 kts | 329° |
| 2026-04-22 16:47 | 39.59246 | 29.72179 | 23776 ft | 357 kts | 329° |
| 2026-04-22 16:47 | 39.62327 | 29.70439 | 23778 ft | 363 kts | 329° |
| 2026-04-22 16:48 | 39.64627 | 29.69142 | 23451 ft | 365 kts | 330° |
| 2026-04-22 16:48 | 39.66959 | 29.67829 | 22974 ft | 363 kts | 329° |
| 2026-04-22 16:48 | 39.69272 | 29.66524 | 22504 ft | 360 kts | 330° |
| 2026-04-22 16:48 | 39.71540 | 29.65241 | 22046 ft | 358 kts | 330° |
| 2026-04-22 16:49 | 39.73829 | 29.63948 | 21586 ft | 356 kts | 329° |
| 2026-04-22 16:49 | 39.76076 | 29.62674 | 21143 ft | 353 kts | 330° |
| 2026-04-22 16:49 | 39.78321 | 29.61401 | 20702 ft | 351 kts | 329° |
| 2026-04-22 16:49 | 39.80554 | 29.60108 | 20264 ft | 348 kts | 329° |
| 2026-04-22 16:50 | 39.82738 | 29.58811 | 19897 ft | 344 kts | 329° |
| 2026-04-22 16:50 | 39.84914 | 29.57509 | 19571 ft | 346 kts | 328° |
| 2026-04-22 16:50 | 39.87077 | 29.56212 | 19247 ft | 346 kts | 328° |
| 2026-04-22 16:50 | 39.89262 | 29.54901 | 18923 ft | 344 kts | 328° |
| 2026-04-22 16:51 | 39.91444 | 29.53593 | 18607 ft | 343 kts | 328° |